Detall de PIREP

Printer-friendly versionPDF version

[2013/03/25 15:36:00]
Flight IATA:CT1004
Pilot Number:012
Company ICAO:CAT
Aircraft Type:MD11/E
PAX:254
Aircraft Registration:PAX
Departing Airport: GCXO
Destination Airport: LEBL
Alternate Airport:LEPA
Online: VATSIM
Route:KORAL UN871 OSDAM UB28 BARPA UM985 PIMOS UM445 BEGOX UN860 VLC UM985 SOPET UN608 MATEX
Flight Level:F360
No Slew and time accel
No pause
Crash detect
Detect pilot in Cockpit between each 30 and 45 minutes
15:36 Zero fuel Weight: 377796 Lbs, Fuel Weight: 65776 Lbs
15:36 VATSIM:GCXO 251500Z VRB01KT CAVOK 18/12 Q1019 NOSIG
15:36 VATSIM:LEBL 251500Z 22019KT 9999 FEW025 18/08 Q1003 NOSIG
15:36 VOICE CATALONIAN / EASTER CHARTER
15:37 Parking Brakes off
15:41 Take-off
15:41 Take off Weight: 442478 Lbs
15:41 Wind: 316º @ 005 Knots Heading: 111º
15:41 POS N28º 28´ 57´´ W016º 20´ 31´´
15:41 Gear Up: 176 Knots
15:41 Flaps:3 at 176 Knots
15:42 Flaps:2 at198 Knots
15:42 Flaps:3 at 201 Knots
15:42 Flaps:2 at 202 Knots
15:42 Flaps:1 at 204 Knots
15:42 Flaps:0 at 211 Knots
15:55 TOC
15:55 Fuel Weight: 55980 Lb
15:56 Wind:241º@019 Knots Heading: 075º Ground Speed: 497 Knots Altitude 35935 ft
16:11 Wind:261º@038 Knots Heading: 054º Ground Speed: 512 Knots Altitude 38097 ft
16:26 Wind:268º@043 Knots Heading: 053º Ground Speed: 513 Knots Altitude 38051 ft
16:41 Wind:276º@052 Knots Heading: 026º Ground Speed: 495 Knots Altitude 38070 ft
16:56 Wind:284º@061 Knots Heading: 025º Ground Speed: 491 Knots Altitude 38093 ft
17:11 Wind:287º@072 Knots Heading: 057º Ground Speed: 522 Knots Altitude 38110 ft
17:26 Wind:288º@073 Knots Heading: 038º Ground Speed: 502 Knots Altitude 38077 ft
17:41 Wind:291º@077 Knots Heading: 044º Ground Speed: 507 Knots Altitude 37916 ft
17:56 Wind:294º@077 Knots Heading: 006º Ground Speed: 455 Knots Altitude 37791 ft
17:58 TOD
17:58 Fuel Weight: 27009 Lb
18:11 Wind:298º@039 Knots Heading: 027º Ground Speed: 277 Knots Altitude 11692 ft
18:16 Flaps:1 at 225 Knots
18:18 Flaps:2 at 243 Knots
18:18 Gear Down: 242 Knots
18:18 Flaps:3 at 238 Knots
18:19 Flaps:4 at 190 Knots
18:19 Flaps:3 at 187 Knots
18:19 Flaps:4 at 186 Knots
18:19 Flaps:5 at 183 Knots
18:19 Flaps:6 at 182 Knots
18:20 Flaps:7 at 183 Knots
18:23 TouchDown:Rate -507 ft/min Speed: 139 Knots
18:23 VATSIM:LEBL 251800Z 24018KT 9999 FEW025 16/11 Q1003 NOSIG
18:23 Land
18:23 Wind:242º@023 Knots
18:23 Heading: 244º
18:23 Flight Duration: 02:42
18:23 Landing Weight: 400532 Lbs
18:23 POS N41º 18´ 03´´ E002º 05´ 26´´
18:25 Parking brakes on
18:25 Block to Block Duration: 02:48
18:25 Final Fuel: 22537 Lbls
18:25 Spent Fuel: 43238 Lbls
18:25 Flight Length: 1272 NM
18:25 TOD Land Length: 138 NM

Exportar CSV

Powered by Drupal - Modified by Danger4k